Time;durP1;ratioP1;P1;durP2;ratioP2;P2;SDS_P1;SDS_P2;PMS_P1;PMS_P2;Temp;Humidity;BMP_temperature;BMP_pressure;BME280_temperature;BME280_humidity;BME280_pressure;Samples;Min_cycle;Max_cycle;Signal;HPM_P1;HPM_P2
2023/03/27 00:01:00;;;;;;;0.40;0.40;;;5.70;99.90;;;;;;6100746;23;20227;-69
2023/03/27 00:03:27;;;;;;;0.30;0.30;;;5.70;99.90;;;;;;6126574;23;20229;-70
2023/03/27 00:06:05;;;;;;;0.40;0.40;;;5.80;99.90;;;;;;6127113;23;20154;-69
2023/03/27 00:08:31;;;;;;;0.40;0.40;;;5.80;99.90;;;;;;6126858;23;20179;-69
2023/03/27 00:10:58;;;;;;;0.30;0.30;;;5.90;99.90;;;;;;6126908;23;20188;-70
2023/03/27 00:13:24;;;;;;;0.30;0.30;;;6.00;99.90;;;;;;6126530;23;20199;-69
2023/03/27 00:15:52;;;;;;;0.40;0.40;;;6.00;99.90;;;;;;6126537;23;20508;-70
2023/03/27 00:18:18;;;;;;;0.30;0.30;;;5.90;99.90;;;;;;6126608;23;20388;-70
2023/03/27 00:20:45;;;;;;;0.40;0.40;;;5.80;99.90;;;;;;6126875;23;20516;-69
2023/03/27 00:23:11;;;;;;;1.05;0.82;;;5.90;99.90;;;;;;6126388;23;20161;-70
2023/03/27 00:25:39;;;;;;;0.35;0.35;;;5.90;99.90;;;;;;6126648;23;20526;-69
2023/03/27 00:28:05;;;;;;;0.40;0.40;;;5.90;99.90;;;;;;6126518;23;20172;-70
2023/03/27 00:30:32;;;;;;;0.70;0.70;;;5.70;99.90;;;;;;6126839;23;20148;-69
2023/03/27 00:32:58;;;;;;;0.43;0.43;;;5.70;99.90;;;;;;6126471;23;20148;-69
2023/03/27 00:35:27;;;;;;;0.40;0.40;;;5.70;99.90;;;;;;6100498;23;20240;-69
2023/03/27 00:37:53;;;;;;;0.40;0.40;;;5.70;99.90;;;;;;6126706;23;20190;-70
2023/03/27 00:40:19;;;;;;;0.40;0.40;;;5.60;99.90;;;;;;6126437;23;20144;-70
2023/03/27 00:42:50;;;;;;;0.30;0.30;;;5.50;99.90;;;;;;6126308;23;20148;-69
2023/03/27 00:45:28;;;;;;;0.40;0.40;;;5.60;99.90;;;;;;6126434;23;20159;-69
2023/03/27 00:48:00;;;;;;;0.40;0.40;;;5.60;99.90;;;;;;6126424;23;20243;-69
2023/03/27 00:50:35;;;;;;;0.35;0.35;;;5.80;99.90;;;;;;6126636;23;20197;-70
2023/03/27 00:53:06;;;;;;;0.40;0.40;;;5.80;99.90;;;;;;6126337;23;20140;-69
2023/03/27 00:55:35;;;;;;;0.40;0.40;;;5.80;99.90;;;;;;6126680;23;20175;-69
2023/03/27 00:58:08;;;;;;;0.40;0.40;;;5.90;99.90;;;;;;6126574;23;20168;-69
2023/03/27 01:00:34;;;;;;;0.38;0.38;;;5.90;99.90;;;;;;6126658;23;20212;-69
2023/03/27 01:03:04;;;;;;;0.40;0.40;;;5.90;99.90;;;;;;6126137;23;20477;-69
2023/03/27 01:05:32;;;;;;;0.50;0.50;;;5.90;99.90;;;;;;6126433;23;20137;-69
2023/03/27 01:07:58;;;;;;;0.40;0.40;;;5.90;99.90;;;;;;6126269;23;20176;-70
2023/03/27 01:10:33;;;;;;;0.35;0.35;;;5.80;99.90;;;;;;6126844;23;20155;-68
2023/03/27 01:13:14;;;;;;;0.40;0.40;;;5.70;99.90;;;;;;6128247;23;20572;-69
2023/03/27 01:15:45;;;;;;;0.30;0.30;;;5.80;99.90;;;;;;6128407;23;20165;-69
2023/03/27 01:18:26;;;;;;;0.40;0.40;;;5.70;99.90;;;;;;6128274;23;20170;-69
2023/03/27 01:21:19;;;;;;;0.40;0.40;;;5.60;99.90;;;;;;6128438;23;20136;-69
2023/03/27 01:24:27;;;;;;;0.40;0.40;;;5.50;99.90;;;;;;6128204;23;20154;-69
2023/03/27 01:27:15;;;;;;;0.35;0.35;;;5.60;99.90;;;;;;6128272;23;20134;-69
2023/03/27 01:29:58;;;;;;;0.40;0.40;;;5.50;99.90;;;;;;6128323;23;20297;-69
2023/03/27 01:32:57;;;;;;;0.50;0.50;;;5.60;99.90;;;;;;6128027;23;20248;-69
2023/03/27 01:35:50;;;;;;;0.40;0.40;;;5.70;99.90;;;;;;6128306;23;20166;-69
2023/03/27 01:38:18;;;;;;;0.30;0.30;;;5.70;99.90;;;;;;6128084;23;20172;-69
2023/03/27 01:40:53;;;;;;;0.40;0.40;;;5.70;99.90;;;;;;6128127;23;20145;-69
2023/03/27 01:43:43;;;;;;;0.35;0.35;;;5.70;99.90;;;;;;6128045;23;20136;-69
2023/03/27 01:46:19;;;;;;;0.40;0.40;;;5.70;99.90;;;;;;6126866;23;20167;-70
2023/03/27 01:48:56;;;;;;;0.32;0.32;;;5.80;99.90;;;;;;6128345;23;20616;-69
2023/03/27 01:51:29;;;;;;;0.30;0.30;;;5.80;99.90;;;;;;6128101;23;20198;-69
2023/03/27 01:54:01;;;;;;;0.40;0.40;;;5.80;99.90;;;;;;6127906;23;20143;-69
2023/03/27 01:56:36;;;;;;;0.40;0.40;;;5.90;99.90;;;;;;6128157;23;20615;-69
2023/03/27 01:59:17;;;;;;;0.30;0.30;;;5.90;99.90;;;;;;6127875;23;20171;-69
2023/03/27 02:01:49;;;;;;;0.30;0.30;;;5.90;99.90;;;;;;6127815;23;20128;-70
2023/03/27 02:04:42;;;;;;;0.30;0.30;;;5.90;99.90;;;;;;6128226;23;20145;-69
2023/03/27 02:07:11;;;;;;;0.40;0.40;;;6.00;99.90;;;;;;6128185;23;20137;-69
2023/03/27 02:09:43;;;;;;;0.30;0.30;;;5.90;99.90;;;;;;6127888;23;20551;-69
2023/03/27 02:12:31;;;;;;;0.35;0.35;;;5.90;99.90;;;;;;6127700;23;20145;-69
2023/03/27 02:15:03;;;;;;;0.40;0.40;;;5.80;99.90;;;;;;6127674;23;20340;-69
2023/03/27 02:17:32;;;;;;;0.40;0.40;;;5.90;99.90;;;;;;6127682;23;20141;-69
2023/03/27 02:20:13;;;;;;;0.30;0.30;;;6.00;99.90;;;;;;6127720;23;20155;-70
2023/03/27 02:22:40;;;;;;;0.40;0.40;;;6.00;99.90;;;;;;6127365;23;20505;-69
2023/03/27 02:25:28;;;;;;;0.40;0.40;;;6.00;99.90;;;;;;6127718;23;20163;-69
2023/03/27 02:28:05;;;;;;;0.38;0.38;;;6.00;99.90;;;;;;6127844;23;20177;-69
2023/03/27 02:30:52;;;;;;;0.40;0.40;;;5.90;99.90;;;;;;6127841;23;20216;-69
2023/03/27 02:33:28;;;;;;;0.60;0.60;;;5.90;99.90;;;;;;6127721;23;20138;-69
2023/03/27 02:36:12;;;;;;;0.40;0.40;;;5.90;99.90;;;;;;6127585;23;20168;-69
2023/03/27 02:38:58;;;;;;;0.40;0.40;;;5.90;99.90;;;;;;6127730;23;20172;-69
2023/03/27 02:41:48;;;;;;;0.40;0.40;;;5.80;99.90;;;;;;6127629;23;20132;-69
2023/03/27 02:44:39;;;;;;;0.30;0.30;;;5.80;99.90;;;;;;6126716;23;20156;-69
2023/03/27 02:47:15;;;;;;;0.30;0.30;;;5.80;99.90;;;;;;6127581;23;20136;-69
2023/03/27 02:49:56;;;;;;;0.30;0.30;;;5.80;99.90;;;;;;6101525;23;20516;-69
2023/03/27 02:52:36;;;;;;;0.40;0.40;;;5.80;99.90;;;;;;6127831;23;20137;-69
2023/03/27 02:55:09;;;;;;;0.50;0.50;;;5.80;99.90;;;;;;6127547;23;20168;-69
2023/03/27 02:57:39;;;;;;;0.30;0.30;;;5.90;99.90;;;;;;6127495;23;20159;-69
2023/03/27 03:00:17;;;;;;;0.40;0.40;;;5.90;99.90;;;;;;6127489;23;20187;-69
2023/03/27 03:02:45;;;;;;;0.40;0.40;;;5.90;99.90;;;;;;6127675;23;20132;-69
2023/03/27 03:05:21;;;;;;;0.40;0.40;;;5.90;99.90;;;;;;6127294;23;20528;-70
2023/03/27 03:07:48;;;;;;;0.40;0.40;;;5.90;99.90;;;;;;6127337;23;20255;-69
2023/03/27 03:10:14;;;;;;;0.40;0.40;;;5.90;99.90;;;;;;6127361;23;20152;-69
2023/03/27 03:12:40;;;;;;;0.40;0.40;;;5.90;99.90;;;;;;6127097;23;20683;-69
2023/03/27 03:15:07;;;;;;;0.30;0.30;;;5.80;99.90;;;;;;6127198;23;20176;-69
2023/03/27 03:17:33;;;;;;;0.30;0.30;;;5.70;99.90;;;;;;6127129;23;20224;-69
2023/03/27 03:19:59;;;;;;;0.40;0.40;;;5.70;99.90;;;;;;6127233;23;20459;-69
2023/03/27 03:22:25;;;;;;;0.33;0.33;;;5.70;99.90;;;;;;6126842;23;20171;-68
2023/03/27 03:24:50;;;;;;;0.30;0.30;;;5.70;99.90;;;;;;6101222;23;20183;-70
2023/03/27 03:27:19;;;;;;;0.30;0.30;;;5.70;99.90;;;;;;6127097;23;20404;-69
2023/03/27 03:29:45;;;;;;;0.40;0.40;;;5.70;99.90;;;;;;6127080;23;20179;-68
2023/03/27 03:32:11;;;;;;;0.68;0.68;;;5.60;99.90;;;;;;6126907;23;20216;-68
2023/03/27 03:34:39;;;;;;;0.47;0.47;;;5.40;99.90;;;;;;6126735;23;20230;-69
2023/03/27 03:37:09;;;;;;;0.40;0.40;;;5.40;99.90;;;;;;6127038;23;20155;-69
2023/03/27 03:39:35;;;;;;;0.40;0.40;;;5.50;99.90;;;;;;6126912;23;20166;-69
2023/03/27 03:42:03;;;;;;;0.40;0.40;;;5.50;99.90;;;;;;6126740;23;20160;-69
2023/03/27 03:44:29;;;;;;;0.40;0.40;;;5.50;99.90;;;;;;6125061;23;20373;-68
2023/03/27 03:46:54;;;;;;;0.40;0.40;;;5.50;99.90;;;;;;6126240;23;20171;-69
2023/03/27 03:49:20;;;;;;;0.60;0.60;;;5.60;99.90;;;;;;6126610;23;20165;-69
2023/03/27 03:51:46;;;;;;;0.45;0.45;;;5.70;99.90;;;;;;6126739;23;20207;-69
2023/03/27 03:54:12;;;;;;;0.40;0.40;;;5.60;99.90;;;;;;6126798;23;20145;-69
2023/03/27 03:56:40;;;;;;;4.40;0.73;;;5.60;99.90;;;;;;6126851;23;20146;-69
2023/03/27 03:59:09;;;;;;;0.40;0.40;;;5.50;99.90;;;;;;6126764;23;20565;-68
2023/03/27 04:01:35;;;;;;;0.40;0.40;;;5.50;99.90;;;;;;6126803;23;20152;-69
2023/03/27 04:04:01;;;;;;;0.50;0.50;;;5.20;99.90;;;;;;6126682;23;20171;-69
2023/03/27 04:06:29;;;;;;;0.40;0.40;;;5.10;99.90;;;;;;6126770;23;20149;-69
2023/03/27 04:08:55;;;;;;;0.40;0.40;;;5.00;99.90;;;;;;6126706;23;20172;-69
2023/03/27 04:11:21;;;;;;;0.70;0.70;;;5.00;99.90;;;;;;6127228;23;20202;-69
2023/03/27 04:13:47;;;;;;;0.50;0.50;;;5.10;99.90;;;;;;6126608;23;20840;-69
2023/03/27 04:16:12;;;;;;;0.40;0.40;;;5.00;99.90;;;;;;6126721;23;20176;-68
2023/03/27 04:18:39;;;;;;;0.40;0.40;;;4.90;99.90;;;;;;6126718;23;20239;-69
2023/03/27 04:21:13;;;;;;;0.40;0.40;;;5.00;99.90;;;;;;6126740;23;20152;-69
2023/03/27 04:23:40;;;;;;;0.40;0.40;;;5.00;99.90;;;;;;6126546;23;20195;-68
2023/03/27 04:26:06;;;;;;;0.40;0.40;;;5.00;99.90;;;;;;6126573;23;20239;-68
2023/03/27 04:28:34;;;;;;;0.53;0.53;;;5.10;99.90;;;;;;6126600;23;20203;-69
2023/03/27 04:31:05;;;;;;;0.40;0.40;;;5.10;99.90;;;;;;6126623;23;20427;-69
2023/03/27 04:33:33;;;;;;;0.30;0.30;;;5.00;99.90;;;;;;6126485;23;20159;-70
2023/03/27 04:35:59;;;;;;;0.38;0.38;;;4.90;99.90;;;;;;6126490;23;20638;-68
2023/03/27 04:38:26;;;;;;;0.30;0.30;;;4.90;99.90;;;;;;6127184;23;20172;-69
2023/03/27 04:40:53;;;;;;;0.40;0.40;;;4.80;99.90;;;;;;6126525;23;20148;-68
2023/03/27 04:43:18;;;;;;;0.40;0.40;;;4.80;99.90;;;;;;6126397;23;20187;-69
2023/03/27 04:45:47;;;;;;;0.40;0.40;;;4.80;99.90;;;;;;6126136;23;20151;-68
2023/03/27 04:48:14;;;;;;;0.38;0.38;;;4.80;99.90;;;;;;6126385;23;20168;-69
2023/03/27 04:50:42;;;;;;;0.40;0.40;;;4.70;99.90;;;;;;6126474;23;20171;-69
2023/03/27 04:53:08;;;;;;;0.70;0.70;;;4.60;99.90;;;;;;6126293;23;20178;-69
2023/03/27 04:55:36;;;;;;;0.67;0.67;;;4.70;99.90;;;;;;6126369;23;20263;-69
2023/03/27 04:58:05;;;;;;;0.40;0.40;;;4.70;99.90;;;;;;6126349;23;20699;-68
2023/03/27 05:00:31;;;;;;;1.48;0.70;;;4.70;99.90;;;;;;6126483;23;20171;-69
2023/03/27 05:02:57;;;;;;;0.30;0.30;;;4.70;99.90;;;;;;6126187;23;20176;-68
2023/03/27 05:05:23;;;;;;;0.40;0.40;;;4.70;99.90;;;;;;6126268;23;20279;-67
2023/03/27 05:07:50;;;;;;;0.50;0.50;;;4.60;99.90;;;;;;6126303;23;20534;-69
2023/03/27 05:10:16;;;;;;;1.55;1.50;;;4.40;99.90;;;;;;6126435;23;20156;-69
2023/03/27 05:12:47;;;;;;;1.27;1.03;;;4.40;99.90;;;;;;6126219;23;20562;-69
2023/03/27 05:15:14;;;;;;;1.35;1.25;;;4.40;99.90;;;;;;6126248;23;20738;-69
2023/03/27 05:17:44;;;;;;;0.88;0.88;;;4.40;99.90;;;;;;6126205;23;20173;-68
2023/03/27 05:20:13;;;;;;;0.60;0.60;;;4.20;99.90;;;;;;6126588;23;20528;-69
2023/03/27 05:22:42;;;;;;;0.30;0.30;;;4.10;99.90;;;;;;6126053;23;20164;-68
2023/03/27 05:25:09;;;;;;;1.98;1.88;;;4.00;99.90;;;;;;6126303;23;20148;-69
2023/03/27 05:27:35;;;;;;;0.30;0.30;;;4.00;99.90;;;;;;6126315;23;20591;-69
2023/03/27 05:30:02;;;;;;;0.40;0.40;;;4.00;99.90;;;;;;6126327;23;20153;-68
2023/03/27 05:32:27;;;;;;;0.50;0.50;;;4.10;99.90;;;;;;6126170;23;20220;-69
2023/03/27 05:34:56;;;;;;;0.30;0.30;;;4.00;99.90;;;;;;6126168;23;20200;-68
2023/03/27 05:37:22;;;;;;;0.93;0.93;;;4.00;99.90;;;;;;6126275;23;20172;-69
2023/03/27 05:39:48;;;;;;;0.35;0.35;;;4.10;99.90;;;;;;6126598;23;20223;-69
2023/03/27 05:42:14;;;;;;;0.50;0.50;;;4.10;99.90;;;;;;6125800;23;20583;-69
2023/03/27 05:44:43;;;;;;;1.33;1.33;;;4.10;99.90;;;;;;6125126;23;20199;-69
2023/03/27 05:47:10;;;;;;;0.38;0.38;;;3.90;99.90;;;;;;6126161;23;20710;-68
2023/03/27 05:49:36;;;;;;;2.33;2.22;;;3.70;99.90;;;;;;6126151;23;20179;-68
2023/03/27 05:52:02;;;;;;;0.60;0.60;;;3.50;99.90;;;;;;6126067;23;20227;-68
2023/03/27 05:54:28;;;;;;;0.40;0.40;;;3.50;99.90;;;;;;6126194;23;20152;-69
2023/03/27 05:56:53;;;;;;;0.40;0.40;;;3.40;99.90;;;;;;6126672;23;20149;-70
2023/03/27 05:59:19;;;;;;;0.30;0.30;;;3.40;99.90;;;;;;6127873;23;20756;-70
2023/03/27 06:01:45;;;;;;;0.50;0.50;;;3.40;99.90;;;;;;6101831;23;20206;-70
2023/03/27 06:04:11;;;;;;;0.75;0.75;;;3.40;99.90;;;;;;6127963;23;20199;-70
2023/03/27 06:06:37;;;;;;;0.73;0.73;;;3.40;99.90;;;;;;6127913;23;20176;-69
2023/03/27 06:09:03;;;;;;;0.70;0.60;;;3.50;99.90;;;;;;6127913;23;20398;-71
2023/03/27 06:11:29;;;;;;;1.70;1.33;;;3.50;99.90;;;;;;6127891;23;20159;-71
2023/03/27 06:13:55;;;;;;;2.25;2.15;;;3.50;99.70;;;;;;6127635;23;20382;-69
2023/03/27 06:16:21;;;;;;;0.83;0.60;;;3.50;99.50;;;;;;6127791;23;20176;-69
2023/03/27 06:18:47;;;;;;;0.53;0.53;;;3.50;98.90;;;;;;6127880;23;20554;-69
2023/03/27 06:21:12;;;;;;;1.70;1.70;;;3.50;98.70;;;;;;6127689;23;20708;-69
2023/03/27 06:23:38;;;;;;;1.03;1.03;;;3.30;98.40;;;;;;6127606;23;20142;-70
2023/03/27 06:26:04;;;;;;;0.40;0.40;;;3.20;98.50;;;;;;6128569;23;20158;-70
2023/03/27 06:28:30;;;;;;;2.83;2.60;;;3.30;99.10;;;;;;6127242;23;20169;-69
2023/03/27 06:30:56;;;;;;;0.50;0.50;;;3.20;98.50;;;;;;6126789;23;20375;-69
2023/03/27 06:33:24;;;;;;;0.63;0.60;;;3.20;98.20;;;;;;6126515;23;20380;-68
2023/03/27 06:35:51;;;;;;;0.70;0.70;;;3.10;97.50;;;;;;6127753;23;20168;-69
2023/03/27 06:38:19;;;;;;;0.40;0.40;;;3.00;97.80;;;;;;6127570;23;20508;-69
2023/03/27 06:40:45;;;;;;;0.30;0.30;;;3.00;97.80;;;;;;6127598;23;20204;-69
2023/03/27 06:43:11;;;;;;;0.70;0.70;;;2.80;98.00;;;;;;6127469;23;20156;-69
2023/03/27 06:45:42;;;;;;;0.47;0.47;;;2.70;98.30;;;;;;6127796;23;20418;-69
2023/03/27 06:48:09;;;;;;;1.98;1.85;;;2.80;98.60;;;;;;6127700;23;20172;-69
2023/03/27 06:50:35;;;;;;;0.98;0.95;;;2.80;98.50;;;;;;6101535;23;20160;-68
2023/03/27 06:53:01;;;;;;;0.55;0.55;;;2.80;98.00;;;;;;6127423;23;20285;-69
2023/03/27 06:55:29;;;;;;;6.47;0.98;;;2.80;98.20;;;;;;6127329;23;20274;-69
2023/03/27 06:57:57;;;;;;;0.40;0.40;;;2.70;98.20;;;;;;6127636;23;20167;-69
2023/03/27 07:00:27;;;;;;;3.35;1.40;;;2.60;97.90;;;;;;6127470;23;20485;-69
2023/03/27 07:02:54;;;;;;;0.40;0.40;;;2.70;98.20;;;;;;6127309;23;20155;-69
2023/03/27 07:05:21;;;;;;;0.30;0.30;;;2.70;97.90;;;;;;6127438;23;20148;-69
2023/03/27 07:07:47;;;;;;;0.52;0.52;;;2.80;97.90;;;;;;6127170;23;20163;-69
2023/03/27 07:10:14;;;;;;;1.30;1.25;;;2.60;97.40;;;;;;6127018;23;20226;-69
2023/03/27 07:12:47;;;;;;;0.40;0.40;;;2.50;97.90;;;;;;6127164;23;20155;-69
2023/03/27 07:15:13;;;;;;;1.52;1.42;;;2.50;97.90;;;;;;6127172;23;20705;-69
2023/03/27 07:17:43;;;;;;;0.53;0.53;;;2.50;97.80;;;;;;6127168;23;20148;-68
2023/03/27 07:20:11;;;;;;;1.02;0.75;;;2.50;98.20;;;;;;6127231;23;20662;-69
2023/03/27 07:22:37;;;;;;;1.20;1.20;;;2.50;97.70;;;;;;6126918;23;20514;-69
2023/03/27 07:25:04;;;;;;;3.90;0.83;;;2.60;97.40;;;;;;6127167;23;20162;-68
2023/03/27 07:27:30;;;;;;;0.60;0.60;;;2.60;97.50;;;;;;6126947;23;20410;-69
2023/03/27 07:29:58;;;;;;;2.03;1.93;;;2.80;97.30;;;;;;6126997;23;20188;-69
2023/03/27 07:32:24;;;;;;;0.68;0.68;;;2.80;97.30;;;;;;6126941;23;20462;-69
2023/03/27 07:34:50;;;;;;;0.70;0.70;;;3.20;96.80;;;;;;6126956;23;20687;-69
2023/03/27 07:37:16;;;;;;;1.60;1.45;;;3.30;96.60;;;;;;6127010;23;20482;-69
2023/03/27 07:39:41;;;;;;;0.67;0.67;;;3.40;96.10;;;;;;6126908;23;20216;-69
2023/03/27 07:42:10;;;;;;;0.50;0.50;;;3.30;96.10;;;;;;6126836;23;20691;-69
2023/03/27 07:44:36;;;;;;;0.45;0.45;;;3.30;95.70;;;;;;6126953;23;20488;-69
2023/03/27 07:47:01;;;;;;;0.70;0.70;;;3.30;95.70;;;;;;6126971;23;20145;-69
2023/03/27 07:49:27;;;;;;;0.40;0.40;;;3.20;96.00;;;;;;6126991;23;20167;-69
2023/03/27 07:51:53;;;;;;;1.53;1.43;;;3.20;96.20;;;;;;6127048;23;20172;-69
2023/03/27 07:54:20;;;;;;;1.67;1.57;;;3.30;96.40;;;;;;6126366;23;20224;-69
2023/03/27 07:56:46;;;;;;;0.82;0.82;;;3.50;96.60;;;;;;6126823;23;20475;-69
2023/03/27 07:59:15;;;;;;;0.82;0.60;;;3.40;95.90;;;;;;6126707;23;20558;-69
2023/03/27 08:01:41;;;;;;;4.00;2.25;;;3.10;95.50;;;;;;6100862;23;20222;-69
2023/03/27 08:04:07;;;;;;;1.10;1.10;;;3.10;96.00;;;;;;6126797;23;20148;-69
2023/03/27 08:06:32;;;;;;;2.00;1.90;;;3.10;96.30;;;;;;6127213;23;20156;-69
2023/03/27 08:08:58;;;;;;;0.67;0.67;;;3.10;96.10;;;;;;6126664;23;20398;-69
2023/03/27 08:11:24;;;;;;;0.55;0.55;;;3.10;96.50;;;;;;6126772;23;20156;-69
2023/03/27 08:13:50;;;;;;;1.30;1.20;;;3.00;96.60;;;;;;6126099;23;20156;-70
2023/03/27 08:16:17;;;;;;;0.63;0.63;;;3.00;97.10;;;;;;6100608;23;20180;-69
2023/03/27 08:18:45;;;;;;;1.40;1.23;;;3.10;97.20;;;;;;6126539;23;20210;-70
2023/03/27 08:21:11;;;;;;;1.08;1.08;;;3.10;96.60;;;;;;6126664;23;20155;-71
2023/03/27 08:23:38;;;;;;;0.40;0.40;;;3.10;96.40;;;;;;6099689;23;20450;-69
2023/03/27 08:26:04;;;;;;;0.95;0.95;;;3.20;96.30;;;;;;6100680;23;20171;-70
2023/03/27 08:28:33;;;;;;;0.82;0.80;;;3.30;95.20;;;;;;6126546;23;20167;-70
2023/03/27 08:31:00;;;;;;;0.40;0.40;;;3.50;95.20;;;;;;6126446;23;20156;-70
2023/03/27 08:33:27;;;;;;;0.70;0.70;;;3.60;94.90;;;;;;6126304;23;20153;-69
2023/03/27 08:35:56;;;;;;;0.70;0.70;;;3.50;95.00;;;;;;6126693;23;20176;-70
2023/03/27 08:38:22;;;;;;;0.45;0.45;;;3.50;95.00;;;;;;6126469;23;20168;-70
2023/03/27 08:40:52;;;;;;;1.52;1.52;;;3.50;95.30;;;;;;6126330;23;20164;-70
2023/03/27 08:43:25;;;;;;;0.80;0.80;;;3.40;95.00;;;;;;6126055;23;20151;-70
2023/03/27 08:46:05;;;;;;;5.05;4.82;;;3.50;94.70;;;;;;6126540;23;20506;-70
2023/03/27 08:48:36;;;;;;;0.40;0.40;;;3.60;94.20;;;;;;6126651;23;20168;-69
2023/03/27 08:51:06;;;;;;;0.50;0.50;;;3.70;93.70;;;;;;6126816;23;20237;-69
2023/03/27 08:53:55;;;;;;;0.93;0.93;;;3.80;93.40;;;;;;6126269;23;20148;-69
2023/03/27 08:56:24;;;;;;;0.60;0.60;;;4.10;93.30;;;;;;6105079;23;20619;-69
2023/03/27 08:58:51;;;;;;;0.40;0.40;;;4.20;92.50;;;;;;6126543;23;20251;-69
2023/03/27 09:01:29;;;;;;;0.40;0.40;;;4.30;91.90;;;;;;6100478;23;20236;-69
2023/03/27 09:04:00;;;;;;;1.38;1.27;;;4.50;91.40;;;;;;6125592;23;20167;-69
2023/03/27 09:06:36;;;;;;;0.50;0.50;;;4.80;91.20;;;;;;6126327;23;20133;-69
2023/03/27 09:09:20;;;;;;;1.73;1.65;;;5.10;90.20;;;;;;6126336;23;20247;-70
2023/03/27 09:11:51;;;;;;;2.35;2.15;;;6.00;90.60;;;;;;6126437;23;20144;-70
2023/03/27 09:14:35;;;;;;;1.77;0.93;;;7.70;86.00;;;;;;6100422;23;20152;-70
2023/03/27 09:17:15;;;;;;;11.05;1.88;;;8.40;78.10;;;;;;6126420;23;20140;-70
2023/03/27 09:19:41;;;;;;;1.27;1.17;;;9.50;73.80;;;;;;6126369;23;20195;-70
2023/03/27 09:22:15;;;;;;;1.00;1.00;;;10.40;66.50;;;;;;6126025;23;20392;-70
2023/03/27 09:24:43;;;;;;;0.40;0.40;;;11.70;63.40;;;;;;6126499;23;20137;-70
2023/03/27 09:27:16;;;;;;;0.70;0.70;;;12.80;57.40;;;;;;6126353;23;20450;-70
2023/03/27 09:29:42;;;;;;;0.37;0.37;;;14.00;54.50;;;;;;6126586;23;20404;-70
2023/03/27 09:32:17;;;;;;;0.30;0.30;;;15.60;49.20;;;;;;6127053;23;20825;-70
2023/03/27 09:34:43;;;;;;;1.93;0.93;;;16.20;43.40;;;;;;6128231;23;20410;-70
2023/03/27 09:37:12;;;;;;;7.50;0.57;;;16.20;43.80;;;;;;6128134;23;20838;-70
2023/03/27 09:39:41;;;;;;;1.13;0.60;;;16.20;43.50;;;;;;6128065;23;20402;-70
2023/03/27 09:42:38;;;;;;;0.40;0.40;;;15.80;42.20;;;;;;6127928;23;20597;-70
2023/03/27 09:45:08;;;;;;;1.10;0.80;;;15.60;45.90;;;;;;6099309;23;20467;-70
2023/03/27 09:47:55;;;;;;;0.40;0.40;;;15.40;42.30;;;;;;6128022;23;20360;-70
2023/03/27 09:50:40;;;;;;;0.50;0.50;;;14.70;43.30;;;;;;6128142;23;20348;-70
2023/03/27 09:53:21;;;;;;;0.40;0.40;;;13.40;41.90;;;;;;6127825;23;20361;-70
2023/03/27 09:55:51;;;;;;;0.40;0.40;;;11.90;43.90;;;;;;6127913;23;20415;-70
2023/03/27 09:58:26;;;;;;;0.40;0.40;;;11.10;46.00;;;;;;6127857;23;20467;-70
2023/03/27 10:01:34;;;;;;;0.40;0.40;;;10.50;46.70;;;;;;6127912;23;20371;-70
2023/03/27 10:04:14;;;;;;;0.40;0.40;;;10.00;47.70;;;;;;6127775;23;20352;-70
2023/03/27 10:06:47;;;;;;;0.43;0.43;;;9.60;47.70;;;;;;6128184;23;20137;-70
2023/03/27 10:09:28;;;;;;;0.40;0.40;;;9.30;49.30;;;;;;6127460;23;20552;-70
2023/03/27 10:12:06;;;;;;;0.40;0.40;;;9.50;50.70;;;;;;6127455;23;20183;-70
2023/03/27 10:14:41;;;;;;;0.50;0.50;;;9.90;51.30;;;;;;6127872;23;20148;-70
2023/03/27 10:17:22;;;;;;;4.43;0.60;;;10.20;48.50;;;;;;6127965;23;20199;-70
2023/03/27 10:19:53;;;;;;;0.40;0.40;;;10.70;48.50;;;;;;6127604;23;20774;-70
2023/03/27 10:22:29;;;;;;;0.40;0.40;;;11.20;49.10;;;;;;6101604;23;20403;-70
2023/03/27 10:24:59;;;;;;;3.13;2.93;;;12.30;47.80;;;;;;6128040;23;20459;-70
2023/03/27 10:27:32;;;;;;;0.40;0.40;;;13.70;49.00;;;;;;6127778;23;20361;-70
2023/03/27 10:29:57;;;;;;;0.50;0.50;;;14.50;45.50;;;;;;6127703;23;20843;-70
2023/03/27 10:32:44;;;;;;;0.40;0.40;;;14.40;42.00;;;;;;6127490;23;20399;-70
2023/03/27 10:35:42;;;;;;;0.40;0.40;;;13.60;43.00;;;;;;6127538;23;20251;-70
2023/03/27 10:38:14;;;;;;;0.67;0.67;;;13.00;43.90;;;;;;6049048;23;20496;-70
2023/03/27 10:40:48;;;;;;;0.60;0.60;;;13.30;47.10;;;;;;6127570;23;20747;-70
2023/03/27 10:43:52;;;;;;;0.50;0.40;;;13.10;42.90;;;;;;6127301;23;20357;-71
2023/03/27 10:46:29;;;;;;;0.40;0.40;;;13.10;45.00;;;;;;5981910;24;20486;-70
2023/03/27 10:49:09;;;;;;;0.40;0.40;;;13.20;45.40;;;;;;5958513;24;21063;-70
2023/03/27 10:51:40;;;;;;;1.00;0.90;;;13.30;44.70;;;;;;6075556;23;20396;-70
2023/03/27 10:54:40;;;;;;;0.60;0.60;;;12.50;46.00;;;;;;6127319;23;20380;-70
2023/03/27 10:57:21;;;;;;;0.50;0.50;;;12.70;46.20;;;;;;6127526;23;20356;-70
2023/03/27 10:59:55;;;;;;;1.13;0.90;;;12.70;44.90;;;;;;6126092;23;20414;-70
2023/03/27 11:02:40;;;;;;;0.40;0.40;;;12.00;45.80;;;;;;6127204;23;20349;-71
2023/03/27 11:05:23;;;;;;;0.30;0.30;;;12.10;48.60;;;;;;6127515;23;20357;-71
2023/03/27 11:08:11;;;;;;;0.63;0.57;;;12.30;47.20;;;;;;6127183;23;20387;-71
2023/03/27 11:10:41;;;;;;;0.37;0.37;;;12.30;47.50;;;;;;6126889;23;20368;-71
2023/03/27 11:13:18;;;;;;;0.30;0.30;;;12.10;45.90;;;;;;6127113;23;20460;-71
2023/03/27 11:15:50;;;;;;;0.80;0.67;;;11.70;45.60;;;;;;6127327;23;20494;-71
2023/03/27 11:18:36;;;;;;;0.40;0.40;;;11.60;46.80;;;;;;6127466;23;20393;-71
2023/03/27 11:21:12;;;;;;;0.50;0.50;;;11.50;46.10;;;;;;6127331;23;20372;-70
2023/03/27 11:23:46;;;;;;;0.43;0.43;;;10.90;46.00;;;;;;6126968;23;20140;-70
2023/03/27 11:26:15;;;;;;;0.40;0.40;;;10.60;46.00;;;;;;6127069;23;20148;-70
2023/03/27 11:29:10;;;;;;;1.02;1.02;;;10.20;48.10;;;;;;6127245;23;20175;-71
2023/03/27 11:31:45;;;;;;;25.00;1.13;;;10.00;49.10;;;;;;6126691;23;20186;-71
2023/03/27 11:34:28;;;;;;;0.43;0.43;;;9.70;51.00;;;;;;6126521;23;20139;-71
2023/03/27 11:37:04;;;;;;;0.40;0.40;;;9.40;50.10;;;;;;6126612;23;20160;-70
2023/03/27 11:39:45;;;;;;;0.40;0.40;;;9.20;52.60;;;;;;6127102;23;20164;-71
2023/03/27 11:42:20;;;;;;;0.30;0.30;;;9.10;53.00;;;;;;6125334;23;20132;-70
2023/03/27 11:44:46;;;;;;;0.30;0.30;;;9.40;52.10;;;;;;6125858;23;20202;-71
2023/03/27 11:47:31;;;;;;;0.40;0.40;;;9.50;52.80;;;;;;6126927;23;20478;-70
2023/03/27 11:50:21;;;;;;;0.40;0.40;;;9.60;51.60;;;;;;6126963;23;20152;-70
2023/03/27 11:53:05;;;;;;;0.30;0.30;;;9.70;50.10;;;;;;6126692;23;20490;-70
2023/03/27 11:55:47;;;;;;;0.73;0.73;;;9.40;49.20;;;;;;6126526;23;20238;-70
2023/03/27 11:58:50;;;;;;;0.30;0.30;;;9.10;49.40;;;;;;6126817;23;20206;-70
2023/03/27 12:01:48;;;;;;;0.40;0.40;;;8.90;50.50;;;;;;6126876;23;20456;-70
2023/03/27 12:04:48;;;;;;;0.60;0.60;;;8.60;49.70;;;;;;6100807;23;20163;-70
2023/03/27 12:07:31;;;;;;;0.40;0.40;;;8.70;50.70;;;;;;6126985;23;20472;-70
2023/03/27 12:10:17;;;;;;;0.60;0.60;;;9.10;51.80;;;;;;6126710;23;20172;-71
2023/03/27 12:13:05;;;;;;;0.50;0.50;;;8.90;52.20;;;;;;6126786;23;20136;-70
2023/03/27 12:15:56;;;;;;;0.40;0.40;;;9.00;51.20;;;;;;6126706;23;20253;-70
2023/03/27 12:18:48;;;;;;;0.60;0.57;;;9.10;50.50;;;;;;6126645;23;20179;-70
2023/03/27 12:21:22;;;;;;;0.40;0.40;;;9.00;48.20;;;;;;6126679;23;20137;-71
2023/03/27 12:23:48;;;;;;;0.50;0.50;;;8.80;50.50;;;;;;6100512;23;20618;-70
2023/03/27 12:26:20;;;;;;;0.63;0.63;;;8.60;49.00;;;;;;6126611;23;20144;-70
2023/03/27 12:28:58;;;;;;;0.40;0.40;;;8.40;49.60;;;;;;6126565;23;20195;-70
2023/03/27 12:31:57;;;;;;;0.40;0.40;;;8.40;50.90;;;;;;6126592;23;20155;-70
2023/03/27 12:34:36;;;;;;;0.60;0.60;;;8.10;50.10;;;;;;6126613;23;20139;-70
2023/03/27 12:37:04;;;;;;;0.40;0.40;;;7.80;50.30;;;;;;6126463;23;20551;-70
2023/03/27 12:39:30;;;;;;;0.50;0.50;;;7.50;48.60;;;;;;6126493;23;20191;-70
2023/03/27 12:41:56;;;;;;;0.30;0.30;;;7.40;48.50;;;;;;6126287;23;20154;-70
2023/03/27 12:44:31;;;;;;;0.60;0.60;;;7.30;48.90;;;;;;6126476;23;20148;-70
2023/03/27 12:47:23;;;;;;;0.75;0.50;;;7.60;49.60;;;;;;6126621;23;20150;-70
2023/03/27 12:49:59;;;;;;;0.40;0.40;;;7.80;50.90;;;;;;6120307;23;20179;-70
2023/03/27 12:52:26;;;;;;;0.40;0.40;;;7.70;49.00;;;;;;6126344;23;20131;-71
2023/03/27 12:55:28;;;;;;;0.40;0.40;;;7.60;50.70;;;;;;6126429;23;20185;-70
2023/03/27 12:57:54;;;;;;;0.40;0.40;;;7.60;50.00;;;;;;6126486;23;20572;-70
2023/03/27 13:00:25;;;;;;;0.73;0.73;;;7.40;46.40;;;;;;6126622;23;20145;-70
2023/03/27 13:03:29;;;;;;;1.20;0.70;;;7.20;45.50;;;;;;6126200;23;20201;-70
2023/03/27 13:06:15;;;;;;;0.60;0.60;;;6.90;46.10;;;;;;6052979;23;20168;-70
2023/03/27 13:09:04;;;;;;;1.05;0.50;;;6.90;48.60;;;;;;6128747;23;20204;-70
2023/03/27 13:12:03;;;;;;;0.45;0.40;;;6.70;49.50;;;;;;6128383;23;20149;-70
2023/03/27 13:14:51;;;;;;;0.40;0.40;;;6.60;48.00;;;;;;6128199;23;20134;-70
2023/03/27 13:17:38;;;;;;;0.40;0.40;;;6.60;49.50;;;;;;6128593;23;20142;-70
2023/03/27 13:20:15;;;;;;;0.57;0.57;;;6.60;49.80;;;;;;6128528;23;20205;-70
2023/03/27 13:23:12;;;;;;;0.93;0.93;;;6.80;49.60;;;;;;6127462;23;20160;-70
2023/03/27 13:25:49;;;;;;;0.30;0.30;;;7.00;51.20;;;;;;6126179;23;20157;-70